createdAt,value
2023-04-25T00:02:16.911Z,3.20
2023-04-25T00:04:46.138Z,3.83
2023-04-25T00:07:16.133Z,3.20
2023-04-25T00:09:44.712Z,4.27
2023-04-25T00:12:13.040Z,3.50
2023-04-25T00:14:41.718Z,3.27
2023-04-25T00:17:10.148Z,3.33
2023-04-25T00:19:38.837Z,3.43
2023-04-25T00:22:07.244Z,3.30
2023-04-25T00:24:37.388Z,3.57
2023-04-25T00:27:05.837Z,3.00
2023-04-25T00:29:35.521Z,2.77
2023-04-25T00:32:04.318Z,2.60
2023-04-25T00:34:33.114Z,3.37
2023-04-25T00:37:03.298Z,3.17
2023-04-25T00:39:31.916Z,2.33
2023-04-25T00:42:02.988Z,2.47
2023-04-25T00:44:33.216Z,3.93
2023-04-25T00:47:03.831Z,3.57
2023-04-25T00:49:32.550Z,2.57
2023-04-25T00:52:01.126Z,3.20
2023-04-25T00:54:31.071Z,2.30
2023-04-25T00:57:01.946Z,2.67
2023-04-25T00:59:31.805Z,3.27
2023-04-25T01:02:00.812Z,2.30
2023-04-25T01:04:30.315Z,3.07
2023-04-25T01:07:00.025Z,4.07
2023-04-25T01:09:29.649Z,3.37
2023-04-25T01:11:58.633Z,2.47
2023-04-25T01:14:28.679Z,3.37
2023-04-25T01:16:57.292Z,2.63
2023-04-25T01:19:26.279Z,2.73
2023-04-25T01:21:56.228Z,4.03
2023-04-25T01:24:25.428Z,3.43
2023-04-25T01:26:54.203Z,3.23
2023-04-25T01:29:26.893Z,4.80
2023-04-25T01:31:55.569Z,3.07
2023-04-25T01:34:24.150Z,3.07
2023-04-25T01:36:52.940Z,3.90
2023-04-25T01:39:23.101Z,4.03
2023-04-25T01:41:51.603Z,2.60
2023-04-25T01:44:20.417Z,2.80
2023-04-25T01:46:48.672Z,2.83
2023-04-25T01:49:17.298Z,2.50
2023-04-25T01:51:46.651Z,3.50
2023-04-25T01:54:15.801Z,3.37
2023-04-25T01:56:45.507Z,3.13
2023-04-25T01:59:14.224Z,3.00
2023-04-25T02:02:04.647Z,3.27
2023-04-25T02:04:35.265Z,3.63
2023-04-25T02:07:05.134Z,3.80
2023-04-25T02:09:46.520Z,4.03
2023-04-25T02:12:16.432Z,4.13
2023-04-25T02:15:03.916Z,4.03
2023-04-25T02:17:46.202Z,3.00
2023-04-25T02:20:15.037Z,3.23
2023-04-25T02:22:43.511Z,2.90
2023-04-25T02:25:13.404Z,3.53
2023-04-25T02:27:44.073Z,4.07
2023-04-25T02:30:13.336Z,3.30
2023-04-25T02:32:41.968Z,4.40
2023-04-25T02:35:12.064Z,3.47
2023-04-25T02:37:41.551Z,3.20
2023-04-25T02:40:11.629Z,3.53
2023-04-25T02:42:39.808Z,3.60
2023-04-25T02:45:10.930Z,4.17
2023-04-25T02:47:39.448Z,3.80
2023-04-25T02:50:09.132Z,3.57
2023-04-25T02:52:37.761Z,3.40
2023-04-25T02:55:21.592Z,3.43
2023-04-25T02:57:50.102Z,3.70
2023-04-25T03:00:30.610Z,3.90
2023-04-25T03:02:59.106Z,3.97
2023-04-25T03:05:27.850Z,2.90
2023-04-25T03:07:56.273Z,4.50
2023-04-25T03:10:24.930Z,3.30
2023-04-25T03:12:53.591Z,2.70
2023-04-25T03:15:22.461Z,3.50
2023-04-25T03:17:52.216Z,4.33
2023-04-25T03:20:20.886Z,3.80
2023-04-25T03:22:49.521Z,4.97
2023-04-25T03:25:18.131Z,3.60
2023-04-25T03:27:47.229Z,3.43
2023-04-25T03:30:16.350Z,3.80
2023-04-25T03:32:46.398Z,4.27
2023-04-25T03:35:19.933Z,2.90
2023-04-25T03:37:48.071Z,4.30
2023-04-25T03:40:22.357Z,4.30
2023-04-25T03:43:09.148Z,3.87
2023-04-25T03:45:39.375Z,4.97
2023-04-25T03:48:07.871Z,2.93
2023-04-25T03:50:37.958Z,4.07
2023-04-25T03:53:06.691Z,4.73
2023-04-25T03:55:54.098Z,3.83
2023-04-25T03:58:24.074Z,3.47
2023-04-25T04:00:52.545Z,4.13
2023-04-25T04:03:21.566Z,4.43
2023-04-25T04:05:51.983Z,4.17
2023-04-25T04:08:20.566Z,4.47
2023-04-25T04:10:49.485Z,4.53
2023-04-25T04:13:17.811Z,4.63
2023-04-25T04:15:47.048Z,4.83
2023-04-25T04:18:16.118Z,5.67
2023-04-25T04:20:44.982Z,5.50
2023-04-25T04:23:15.330Z,6.40
2023-04-25T04:25:44.285Z,4.70
2023-04-25T04:28:22.843Z,4.33
2023-04-25T04:30:59.175Z,5.87
2023-04-25T04:33:29.107Z,5.37
2023-04-25T04:36:01.916Z,5.60
2023-04-25T04:38:31.985Z,6.00
2023-04-25T04:41:04.386Z,5.43
2023-04-25T04:43:41.895Z,6.90
2023-04-25T04:46:22.936Z,6.83
2023-04-25T04:49:20.491Z,5.73
2023-04-25T04:52:12.133Z,6.67
2023-04-25T04:54:56.439Z,5.47
2023-04-25T04:57:36.869Z,5.60
2023-04-25T05:00:16.630Z,5.13
2023-04-25T05:03:07.891Z,6.37
2023-04-25T05:05:44.534Z,5.37
2023-04-25T05:08:35.115Z,5.20
2023-04-25T05:11:18.002Z,5.80
2023-04-25T05:14:09.433Z,5.63
2023-04-25T05:17:07.636Z,5.90
2023-04-25T05:19:56.637Z,5.80
2023-04-25T05:22:45.358Z,5.40
2023-04-25T05:25:22.033Z,4.77
2023-04-25T05:28:01.905Z,5.40
2023-04-25T05:30:42.354Z,5.37
2023-04-25T05:33:18.927Z,4.83
2023-04-25T05:35:48.534Z,4.77
2023-04-25T05:38:16.958Z,5.00
2023-04-25T05:41:04.001Z,4.60
2023-04-25T05:43:48.044Z,5.30
2023-04-25T05:46:37.529Z,4.90
2023-04-25T05:49:11.958Z,5.87
2023-04-25T05:51:55.538Z,6.13
2023-04-25T05:54:44.538Z,4.80
2023-04-25T05:57:22.968Z,5.87
2023-04-25T05:59:53.786Z,5.30
2023-04-25T06:02:23.801Z,4.47
2023-04-25T06:04:53.252Z,6.37
2023-04-25T06:07:22.325Z,5.47
2023-04-25T06:09:51.026Z,5.03
2023-04-25T06:12:19.827Z,5.73
2023-04-25T06:14:49.508Z,5.17
2023-04-25T06:17:19.474Z,5.27
2023-04-25T06:19:51.196Z,4.40
2023-04-25T06:22:21.412Z,5.33
2023-04-25T06:24:49.866Z,6.33
2023-04-25T06:27:18.857Z,4.13
2023-04-25T06:29:47.942Z,5.87
2023-04-25T06:32:16.910Z,4.50
2023-04-25T06:34:46.640Z,4.40
2023-04-25T06:37:15.550Z,5.43
2023-04-25T06:39:44.107Z,5.17
2023-04-25T06:42:13.400Z,5.20
2023-04-25T06:45:08.622Z,4.53
2023-04-25T06:47:38.063Z,4.60
2023-04-25T06:50:09.091Z,4.67
2023-04-25T06:52:38.849Z,3.40
2023-04-25T06:55:08.491Z,4.10
2023-04-25T06:57:52.452Z,4.70
2023-04-25T07:00:44.054Z,6.37
2023-04-25T07:03:13.023Z,5.37
2023-04-25T07:05:42.681Z,5.43
2023-04-25T07:08:11.573Z,5.87
2023-04-25T07:10:39.932Z,5.27
2023-04-25T07:13:09.045Z,4.97
2023-04-25T07:15:38.352Z,4.20
2023-04-25T07:18:08.036Z,4.07
2023-04-25T07:20:36.674Z,4.30
2023-04-25T07:23:07.156Z,4.93
2023-04-25T07:25:36.247Z,5.67
2023-04-25T07:28:05.373Z,5.10
2023-04-25T07:30:34.848Z,4.77
2023-04-25T07:33:06.451Z,4.77
2023-04-25T07:35:35.293Z,4.57
2023-04-25T07:38:04.432Z,5.43
2023-04-25T07:40:35.047Z,5.33
2023-04-25T07:43:08.244Z,4.57
2023-04-25T07:45:50.349Z,4.53
2023-04-25T07:48:21.705Z,5.20
2023-04-25T07:50:51.877Z,5.03
2023-04-25T07:53:20.036Z,4.50
2023-04-25T07:55:56.096Z,5.17
2023-04-25T07:58:24.324Z,5.10
2023-04-25T08:00:57.478Z,5.67
2023-04-25T08:03:49.030Z,5.53
2023-04-25T08:06:24.553Z,5.77
2023-04-25T08:09:04.056Z,6.13
2023-04-25T08:11:40.409Z,5.20
2023-04-25T08:14:10.782Z,6.27
2023-04-25T08:16:40.751Z,5.43
2023-04-25T08:19:09.051Z,5.63
2023-04-25T08:21:37.806Z,5.60
2023-04-25T08:24:10.573Z,5.90
2023-04-25T08:26:42.551Z,6.10
2023-04-25T08:29:14.075Z,5.30
2023-04-25T08:31:43.866Z,5.20
2023-04-25T08:34:12.177Z,4.97
2023-04-25T08:36:45.798Z,5.07
2023-04-25T08:39:40.452Z,4.75
2023-04-25T08:42:32.421Z,5.63
2023-04-25T08:45:04.396Z,4.78
2023-04-25T08:47:40.215Z,5.07
2023-04-25T08:50:09.494Z,5.78
2023-04-25T08:52:42.193Z,5.47
2023-04-25T08:55:13.552Z,4.30
2023-04-25T08:57:44.834Z,6.22
2023-04-25T09:00:15.692Z,4.60
2023-04-25T09:02:46.327Z,4.57
2023-04-25T09:05:15.952Z,5.60
2023-04-25T09:07:46.992Z,5.10
2023-04-25T09:10:16.777Z,5.07
2023-04-25T09:13:03.539Z,4.93
2023-04-25T09:15:33.516Z,5.10
2023-04-25T09:18:29.874Z,5.72
2023-04-25T09:21:13.060Z,5.20
2023-04-25T09:23:46.114Z,6.05
2023-04-25T09:26:17.986Z,5.63
2023-04-25T09:28:49.700Z,5.75
2023-04-25T09:31:25.176Z,5.82
2023-04-25T09:34:01.984Z,4.82
2023-04-25T09:36:36.601Z,5.15
2023-04-25T09:39:30.723Z,4.30
2023-04-25T09:42:06.990Z,5.00
2023-04-25T09:44:38.188Z,4.50
2023-04-25T09:47:11.339Z,5.07
2023-04-25T09:49:42.677Z,4.40
2023-04-25T09:52:17.971Z,4.15
2023-04-25T09:55:15.834Z,5.18
2023-04-25T09:57:51.642Z,5.20
2023-04-25T10:00:23.663Z,4.88
2023-04-25T10:02:54.005Z,3.60
2023-04-25T10:05:53.427Z,4.18
2023-04-25T10:08:22.834Z,4.32
2023-04-25T10:10:52.062Z,4.90
2023-04-25T10:13:21.818Z,4.15
2023-04-25T10:15:53.289Z,4.35
2023-04-25T10:18:21.992Z,4.40
2023-04-25T10:20:52.731Z,4.32
2023-04-25T10:23:22.693Z,5.68
2023-04-25T10:25:52.455Z,4.50
2023-04-25T10:28:21.102Z,4.07
2023-04-25T10:31:04.835Z,3.65
2023-04-25T10:33:38.911Z,3.58
2023-04-25T10:36:15.941Z,3.80
2023-04-25T10:38:45.498Z,4.40
2023-04-25T10:41:15.018Z,3.38
2023-04-25T10:43:44.758Z,4.13
2023-04-25T10:46:20.036Z,4.32
2023-04-25T10:48:50.363Z,4.18
2023-04-25T10:51:23.153Z,4.18
2023-04-25T10:54:02.405Z,4.05
2023-04-25T10:56:32.591Z,3.97
2023-04-25T10:59:12.375Z,4.38
2023-04-25T11:01:45.265Z,3.90
2023-04-25T11:04:24.124Z,3.75
2023-04-25T11:07:12.016Z,5.35
2023-04-25T11:09:42.201Z,4.45
2023-04-25T11:12:12.876Z,3.40
2023-04-25T11:14:41.834Z,3.75
2023-04-25T11:17:12.713Z,4.47
2023-04-25T11:19:41.363Z,4.25
2023-04-25T11:22:12.301Z,5.05
2023-04-25T11:24:40.881Z,4.70
2023-04-25T11:27:10.429Z,4.22
2023-04-25T11:29:38.882Z,3.05
2023-04-25T11:32:07.708Z,3.58
2023-04-25T11:34:37.457Z,3.63
2023-04-25T11:37:07.091Z,3.95
2023-04-25T11:39:35.821Z,4.22
2023-04-25T11:42:08.079Z,3.88
2023-04-25T11:44:42.562Z,3.20
2023-04-25T11:47:11.307Z,4.63
2023-04-25T11:49:41.126Z,4.22
2023-04-25T11:52:09.928Z,4.00
2023-04-25T11:54:39.056Z,4.10
2023-04-25T11:57:08.064Z,5.82
2023-04-25T11:59:36.320Z,4.40
2023-04-25T12:02:04.844Z,4.20
2023-04-25T12:04:34.455Z,4.28
2023-04-25T12:07:04.633Z,4.03
2023-04-25T12:09:34.437Z,4.10
2023-04-25T12:12:04.791Z,4.63
2023-04-25T12:14:34.811Z,3.70
2023-04-25T12:17:08.658Z,3.90
2023-04-25T12:19:41.138Z,3.95
2023-04-25T12:22:23.948Z,3.70
2023-04-25T12:24:54.282Z,3.70
2023-04-25T12:27:22.815Z,3.58
2023-04-25T12:29:55.548Z,3.85
2023-04-25T12:32:24.428Z,2.75
2023-04-25T12:34:52.807Z,4.20
2023-04-25T12:37:22.925Z,3.55
2023-04-25T12:39:51.680Z,4.15
2023-04-25T12:42:20.203Z,5.00
2023-04-25T12:44:48.603Z,6.03
2023-04-25T12:47:17.383Z,5.82
2023-04-25T12:49:45.959Z,5.53
2023-04-25T12:52:14.622Z,5.00
2023-04-25T12:54:44.414Z,6.35
2023-04-25T12:57:13.298Z,6.93
2023-04-25T12:59:41.575Z,6.03
2023-04-25T13:02:10.264Z,6.10
2023-04-25T13:04:39.064Z,5.95
2023-04-25T13:07:07.672Z,5.38
2023-04-25T13:09:35.850Z,4.28
2023-04-25T13:12:06.504Z,5.10
2023-04-25T13:14:34.786Z,3.53
2023-04-25T13:17:03.401Z,3.60
2023-04-25T13:19:31.783Z,3.38
2023-04-25T13:22:00.489Z,3.97
2023-04-25T13:24:28.870Z,3.20
2023-04-25T13:26:57.887Z,3.03
2023-04-25T13:29:27.591Z,3.90
2023-04-25T13:31:56.277Z,3.33
2023-04-25T13:34:24.649Z,3.17
2023-04-25T13:36:53.361Z,2.47
2023-04-25T13:39:21.962Z,2.45
2023-04-25T13:41:50.648Z,2.53
2023-04-25T13:44:19.106Z,1.65
2023-04-25T13:46:49.079Z,3.38
2023-04-25T13:49:17.612Z,3.53
2023-04-25T13:51:46.352Z,3.03
2023-04-25T13:54:15.213Z,4.57
2023-04-25T13:56:43.921Z,4.27
2023-04-25T13:59:12.659Z,4.18
2023-04-25T14:01:41.427Z,4.57
2023-04-25T14:04:12.351Z,4.65
2023-04-25T14:06:41.057Z,4.73
2023-04-25T14:09:11.260Z,4.33
2023-04-25T14:11:40.098Z,3.70
2023-04-25T14:14:08.421Z,3.97
2023-04-25T14:16:37.525Z,4.43
2023-04-25T14:19:05.954Z,3.73
2023-04-25T14:21:36.125Z,4.20
2023-04-25T14:24:05.946Z,4.82
2023-04-25T14:26:35.616Z,5.40
2023-04-25T14:29:04.076Z,3.80
2023-04-25T14:31:32.643Z,4.07
2023-04-25T14:34:01.120Z,3.45
2023-04-25T14:36:31.833Z,3.97
2023-04-25T14:39:02.051Z,4.70
2023-04-25T14:41:30.757Z,3.65
2023-04-25T14:43:59.041Z,4.47
2023-04-25T14:46:28.124Z,4.80
2023-04-25T14:48:57.309Z,3.87
2023-04-25T14:51:27.501Z,6.00
2023-04-25T14:53:56.111Z,4.63
2023-04-25T14:56:26.477Z,4.27
2023-04-25T14:58:54.678Z,2.77
2023-04-25T15:01:24.237Z,3.90
2023-04-25T15:03:53.721Z,3.63
2023-04-25T15:06:22.680Z,3.57
2023-04-25T15:08:51.259Z,3.53
2023-04-25T15:11:21.281Z,4.90
2023-04-25T15:13:51.174Z,3.73
2023-04-25T15:16:20.255Z,5.13
2023-04-25T15:18:48.517Z,4.50
2023-04-25T15:21:17.220Z,3.83
2023-04-25T15:23:45.381Z,3.60
2023-04-25T15:26:14.452Z,4.40
2023-04-25T15:28:43.657Z,3.60
2023-04-25T15:31:13.647Z,4.53
2023-04-25T15:33:42.165Z,4.30
2023-04-25T15:36:11.354Z,4.33
2023-04-25T15:38:39.681Z,4.77
2023-04-25T15:41:08.304Z,4.67
2023-04-25T15:43:38.370Z,4.40
2023-04-25T15:46:06.981Z,4.57
2023-04-25T15:48:37.325Z,6.00
2023-04-25T15:51:06.067Z,6.07
2023-04-25T15:53:34.603Z,5.10
2023-04-25T15:56:04.650Z,4.40
2023-04-25T15:58:33.029Z,5.03
2023-04-25T16:01:01.661Z,5.83
2023-04-25T16:03:30.655Z,5.57
2023-04-25T16:06:02.269Z,5.60
2023-04-25T16:08:34.245Z,4.50
2023-04-25T16:11:03.397Z,5.60
2023-04-25T16:13:33.580Z,6.60
2023-04-25T16:16:03.097Z,5.83
2023-04-25T16:18:31.760Z,5.50
2023-04-25T16:21:01.671Z,4.17
2023-04-25T16:23:30.248Z,5.23
2023-04-25T16:25:58.831Z,5.67
2023-04-25T16:28:27.250Z,5.50
2023-04-25T16:30:55.840Z,5.20
2023-04-25T16:33:24.297Z,5.33
2023-04-25T16:35:53.482Z,3.67
2023-04-25T16:38:23.877Z,4.83
2023-04-25T16:40:52.471Z,5.43
2023-04-25T16:43:21.402Z,5.43
2023-04-25T16:45:50.360Z,4.60
2023-04-25T16:48:20.809Z,4.97
2023-04-25T16:50:49.684Z,4.53
2023-04-25T16:53:18.143Z,4.53
2023-04-25T16:55:48.010Z,4.67
2023-04-25T16:58:16.432Z,4.97
2023-04-25T17:00:45.239Z,4.17
2023-04-25T17:03:13.719Z,5.70
2023-04-25T17:05:42.575Z,5.43
2023-04-25T17:08:10.777Z,4.40
2023-04-25T17:10:39.396Z,5.77
2023-04-25T17:13:09.149Z,4.47
2023-04-25T17:15:37.788Z,5.00
2023-04-25T17:18:06.266Z,4.87
2023-04-25T17:20:35.133Z,4.10
2023-04-25T17:23:03.732Z,4.40
2023-04-25T17:25:32.979Z,4.80
2023-04-25T17:28:01.358Z,5.70
2023-04-25T17:30:32.094Z,4.87
2023-04-25T17:33:00.610Z,3.90
2023-04-25T17:35:30.187Z,5.77
2023-04-25T17:37:58.747Z,5.33
2023-04-25T17:40:28.033Z,4.23
2023-04-25T17:42:56.345Z,4.73
2023-04-25T17:45:24.821Z,5.00
2023-04-25T17:47:54.411Z,4.40
2023-04-25T17:50:23.082Z,5.20
2023-04-25T17:52:51.215Z,5.20
2023-04-25T17:55:19.991Z,5.37
2023-04-25T17:57:48.460Z,6.17
2023-04-25T18:00:18.590Z,5.13
2023-04-25T18:02:48.548Z,6.60
2023-04-25T18:05:19.214Z,5.47
2023-04-25T18:07:47.624Z,8.07
2023-04-25T18:10:16.252Z,6.10
2023-04-25T18:12:44.947Z,7.53
2023-04-25T18:15:13.488Z,6.30
2023-04-25T18:17:41.767Z,5.30
2023-04-25T18:20:14.883Z,5.63
2023-04-25T18:22:45.504Z,5.60
2023-04-25T18:25:14.399Z,5.33
2023-04-25T18:27:43.581Z,5.20
2023-04-25T18:30:15.064Z,4.83
2023-04-25T18:32:43.440Z,5.47
2023-04-25T18:35:12.300Z,4.50
2023-04-25T18:37:42.379Z,4.97
2023-04-25T18:40:15.670Z,4.60
2023-04-25T18:42:44.107Z,6.37
2023-04-25T18:45:13.180Z,5.00
2023-04-25T18:47:41.401Z,4.70
2023-04-25T18:50:11.720Z,4.93
2023-04-25T18:52:40.597Z,4.37
2023-04-25T18:55:10.409Z,4.70
2023-04-25T18:57:40.364Z,5.33
2023-04-25T19:00:11.206Z,4.37
2023-04-25T19:02:40.042Z,4.53
2023-04-25T19:05:10.700Z,4.10
2023-04-25T19:07:40.534Z,4.17
2023-04-25T19:10:10.079Z,4.97
2023-04-25T19:12:41.729Z,4.27
2023-04-25T19:15:11.950Z,4.37
2023-04-25T19:17:42.175Z,4.70
2023-04-25T19:20:11.693Z,4.70
2023-04-25T19:22:40.704Z,5.33
2023-04-25T19:25:13.104Z,5.00
2023-04-25T19:27:43.371Z,4.67
2023-04-25T19:30:13.030Z,4.37
2023-04-25T19:32:42.489Z,5.00
2023-04-25T19:35:11.959Z,5.77
2023-04-25T19:37:46.306Z,5.77
2023-04-25T19:40:18.178Z,6.37
2023-04-25T19:42:48.036Z,5.77
2023-04-25T19:45:17.027Z,4.73
2023-04-25T19:47:46.561Z,5.47
2023-04-25T19:50:16.033Z,4.77
2023-04-25T19:52:44.586Z,4.93
2023-04-25T19:55:13.319Z,4.57
2023-04-25T19:57:41.900Z,3.87
2023-04-25T20:00:17.398Z,3.97
2023-04-25T20:02:47.854Z,5.90
2023-04-25T20:05:18.448Z,4.27
2023-04-25T20:07:47.530Z,4.47
2023-04-25T20:10:17.405Z,4.53
2023-04-25T20:12:48.597Z,4.53
2023-04-25T20:15:19.492Z,4.47
2023-04-25T20:17:48.578Z,4.60
2023-04-25T20:20:17.839Z,3.93
2023-04-25T20:22:46.499Z,4.57
2023-04-25T20:25:15.173Z,5.03
2023-04-25T20:27:43.467Z,4.63
2023-04-25T20:30:13.594Z,4.77
2023-04-25T20:32:43.391Z,5.30
2023-04-25T20:35:12.628Z,4.60
2023-04-25T20:37:40.908Z,4.73
2023-04-25T20:40:10.338Z,6.40
2023-04-25T20:42:39.017Z,4.93
2023-04-25T20:45:13.572Z,4.90
2023-04-25T20:47:44.530Z,4.73
2023-04-25T20:50:13.444Z,4.10
2023-04-25T20:52:41.922Z,4.57
2023-04-25T20:55:12.008Z,5.43
2023-04-25T20:57:40.134Z,4.90
2023-04-25T21:00:18.346Z,3.87
2023-04-25T21:02:48.230Z,6.10
2023-04-25T21:05:17.062Z,4.83
2023-04-25T21:07:45.665Z,4.90
2023-04-25T21:10:15.578Z,4.53
2023-04-25T21:12:47.736Z,4.80
2023-04-25T21:15:18.157Z,3.77
2023-04-25T21:17:48.243Z,4.63
2023-04-25T21:20:18.139Z,4.37
2023-04-25T21:22:50.416Z,4.83
2023-04-25T21:25:24.136Z,4.37
2023-04-25T21:27:53.123Z,3.80
2023-04-25T21:30:23.752Z,4.50
2023-04-25T21:32:54.268Z,4.87
2023-04-25T21:35:23.520Z,4.10
2023-04-25T21:37:52.253Z,4.57
2023-04-25T21:40:21.186Z,4.63
2023-04-25T21:42:53.197Z,4.67
2023-04-25T21:45:22.064Z,5.07
2023-04-25T21:47:50.792Z,4.40
2023-04-25T21:50:21.203Z,4.10
2023-04-25T21:52:49.910Z,4.13
2023-04-25T21:55:19.779Z,3.90
2023-04-25T21:57:48.095Z,3.80
2023-04-25T22:00:24.905Z,4.03
2023-04-25T22:02:55.349Z,4.10
2023-04-25T22:05:26.870Z,4.07
2023-04-25T22:07:58.343Z,4.13
2023-04-25T22:10:27.207Z,4.00
2023-04-25T22:12:56.023Z,4.40
2023-04-25T22:15:24.539Z,4.43
2023-04-25T22:17:54.047Z,4.20
2023-04-25T22:20:26.087Z,4.07
2023-04-25T22:22:56.646Z,4.33
2023-04-25T22:25:25.694Z,3.47
2023-04-25T22:27:55.334Z,4.30
2023-04-25T22:30:24.213Z,4.20
2023-04-25T22:32:53.267Z,4.33
2023-04-25T22:35:22.370Z,4.03
2023-04-25T22:37:50.715Z,3.77
2023-04-25T22:40:21.010Z,4.60
2023-04-25T22:42:49.456Z,4.27
2023-04-25T22:45:18.165Z,4.47
2023-04-25T22:47:47.346Z,3.50
2023-04-25T22:50:17.048Z,3.60
2023-04-25T22:52:45.694Z,4.03
2023-04-25T22:55:14.505Z,4.37
2023-04-25T22:57:44.216Z,2.93
2023-04-25T23:00:19.775Z,3.53
2023-04-25T23:02:49.776Z,3.53
2023-04-25T23:05:19.927Z,3.10
2023-04-25T23:07:48.395Z,2.57
2023-04-25T23:10:17.447Z,3.43
2023-04-25T23:12:47.032Z,3.00
2023-04-25T23:15:15.609Z,3.33
2023-04-25T23:17:44.496Z,3.60
2023-04-25T23:20:13.774Z,3.30
2023-04-25T23:22:42.170Z,4.07
2023-04-25T23:25:11.848Z,2.87
2023-04-25T23:27:40.093Z,3.83
2023-04-25T23:30:11.350Z,4.07
2023-04-25T23:32:39.765Z,3.20
2023-04-25T23:35:10.045Z,2.43
2023-04-25T23:37:39.234Z,3.63
2023-04-25T23:40:12.138Z,3.80
2023-04-25T23:42:41.993Z,2.77
2023-04-25T23:45:14.272Z,2.80
2023-04-25T23:47:43.146Z,3.77
2023-04-25T23:50:12.340Z,4.37
2023-04-25T23:52:40.684Z,4.67
2023-04-25T23:55:09.894Z,3.43
2023-04-25T23:57:38.204Z,4.20
